createdAt,value
2018-05-14T05:48:00.173Z,40.20
2018-05-14T05:50:30.103Z,41.30
2018-05-14T05:52:58.823Z,41.20
2018-05-14T05:55:27.473Z,41.40
2018-05-14T05:57:56.352Z,41.50
2018-05-14T06:00:24.527Z,41.50
2018-05-14T06:02:52.684Z,41.10
2018-05-14T06:05:20.881Z,40.90
2018-05-14T06:07:48.823Z,41.00
2018-05-14T06:10:16.803Z,41.20
2018-05-14T06:12:45.153Z,41.10
2018-05-14T06:15:13.231Z,41.10
2018-05-14T06:20:01.547Z,41.90
2018-05-14T06:22:31.010Z,41.50
2018-05-14T06:24:59.708Z,41.50
2018-05-14T06:27:28.133Z,41.50
2018-05-14T06:29:56.659Z,41.50
2018-05-14T06:32:25.619Z,41.70
2018-05-14T06:34:54.371Z,42.00
2018-05-14T06:37:22.522Z,42.10
2018-05-14T06:39:50.907Z,42.20
2018-05-14T06:42:19.819Z,41.50
2018-05-14T06:44:48.458Z,42.20
2018-05-14T06:47:16.770Z,42.10
2018-05-14T06:49:45.860Z,42.00
2018-05-14T06:52:14.594Z,42.90
2018-05-14T06:54:43.123Z,42.70
2018-05-14T06:57:11.418Z,42.50
2018-05-14T06:59:40.307Z,43.20
2018-05-14T07:02:08.786Z,43.10
2018-05-14T07:04:37.689Z,42.90
2018-05-14T07:07:06.213Z,42.80
2018-05-14T07:09:34.639Z,42.70
2018-05-14T07:12:03.056Z,42.90
2018-05-14T07:14:31.622Z,43.10
2018-05-14T07:17:00.444Z,42.50
2018-05-14T07:19:28.454Z,42.80
2018-05-14T07:21:57.232Z,42.60
2018-05-14T07:24:25.706Z,42.70
2018-05-14T07:26:54.072Z,42.80
2018-05-14T07:29:23.082Z,43.00
2018-05-14T07:31:51.365Z,42.40
2018-05-14T07:34:19.632Z,42.50
2018-05-14T07:36:48.722Z,42.60
2018-05-14T07:39:16.844Z,42.60
2018-05-14T07:41:44.996Z,41.90
2018-05-14T07:44:13.415Z,42.00
2018-05-14T07:46:41.829Z,42.00
2018-05-14T07:49:10.928Z,41.90
2018-05-14T07:51:39.390Z,41.90
2018-05-14T07:54:07.497Z,42.60
2018-05-14T07:56:36.161Z,41.90
2018-05-14T07:59:04.780Z,42.20
2018-05-14T08:01:33.730Z,42.10
2018-05-14T08:04:01.818Z,42.80
2018-05-14T08:06:30.449Z,42.90
2018-05-14T08:08:58.531Z,43.00
2018-05-14T08:11:26.829Z,42.20
2018-05-14T08:13:55.826Z,42.60
2018-05-14T08:16:24.074Z,42.60
2018-05-14T08:18:52.563Z,41.80
2018-05-14T08:21:20.550Z,41.90
2018-05-14T08:23:48.811Z,41.90
2018-05-14T08:26:17.941Z,42.10
2018-05-14T08:28:46.000Z,42.10
2018-05-14T08:31:14.401Z,41.70
2018-05-14T08:33:42.709Z,41.50
2018-05-14T08:36:11.166Z,41.80
2018-05-14T08:38:39.342Z,41.30
2018-05-14T08:41:07.363Z,41.40
2018-05-14T08:43:35.625Z,41.30
2018-05-14T08:46:04.915Z,41.20
2018-05-14T08:48:33.605Z,41.00
2018-05-14T08:51:02.538Z,41.00
2018-05-14T08:53:30.899Z,40.90
2018-05-14T08:55:59.054Z,41.20
2018-05-14T08:58:27.207Z,41.20
2018-05-14T09:00:55.183Z,41.10
2018-05-14T09:03:24.486Z,40.10
2018-05-14T09:05:53.676Z,39.90
2018-05-14T09:08:22.520Z,39.80
2018-05-14T09:10:50.783Z,39.70
2018-05-14T09:13:18.880Z,39.40
2018-05-14T09:15:46.883Z,39.80
2018-05-14T09:18:15.749Z,39.40
2018-05-14T09:20:43.835Z,39.30
2018-05-14T09:23:13.174Z,39.50
2018-05-14T09:25:41.396Z,39.40
2018-05-14T09:28:09.802Z,39.50
2018-05-14T09:30:37.900Z,38.50
2018-05-14T09:33:06.236Z,38.40
2018-05-14T09:35:34.884Z,38.30
2018-05-14T09:38:03.314Z,38.20
2018-05-14T09:40:31.624Z,38.30
2018-05-14T09:42:59.875Z,38.40
2018-05-14T09:45:27.980Z,38.80
2018-05-14T09:47:56.326Z,38.60
2018-05-14T09:50:24.497Z,39.10
2018-05-14T09:52:52.675Z,38.20
2018-05-14T09:55:21.127Z,37.70
2018-05-14T09:57:49.166Z,37.90
2018-05-14T10:00:17.476Z,36.90
2018-05-14T10:02:45.700Z,37.50
2018-05-14T10:05:14.095Z,37.80
2018-05-14T10:07:42.231Z,36.70
2018-05-14T10:10:10.205Z,37.80
2018-05-14T10:12:38.558Z,36.90
2018-05-14T10:15:06.693Z,37.10
2018-05-14T10:17:35.827Z,37.20
2018-05-14T10:20:04.068Z,37.20
2018-05-14T10:22:33.073Z,36.70
2018-05-14T10:25:01.419Z,36.60
2018-05-14T10:27:30.335Z,36.20
2018-05-14T10:29:58.600Z,37.00
2018-05-14T10:32:27.696Z,36.50
2018-05-14T10:34:56.734Z,36.90
2018-05-14T10:37:24.841Z,36.80
2018-05-14T10:39:53.443Z,37.00
2018-05-14T10:42:21.731Z,36.70
2018-05-14T10:44:50.182Z,36.40
2018-05-14T10:47:18.360Z,36.50
2018-05-14T10:49:47.424Z,36.20
2018-05-14T10:52:15.727Z,36.10
2018-05-14T10:54:44.385Z,36.40
2018-05-14T10:57:12.718Z,36.30
2018-05-14T10:59:40.966Z,36.00
2018-05-14T11:02:10.162Z,36.80
2018-05-14T11:04:38.369Z,36.70
2018-05-14T11:07:06.398Z,35.50
2018-05-14T11:09:34.482Z,35.90
2018-05-14T11:12:03.656Z,35.00
2018-05-14T11:14:31.892Z,34.90
2018-05-14T11:16:59.854Z,35.30
2018-05-14T11:19:28.077Z,35.20
2018-05-14T11:21:56.262Z,35.00
2018-05-14T11:24:25.041Z,35.20
2018-05-14T11:26:53.427Z,35.10
2018-05-14T11:29:22.312Z,33.80
2018-05-14T11:31:51.606Z,32.40
2018-05-14T11:34:20.657Z,33.50
2018-05-14T11:36:48.759Z,33.50
2018-05-14T11:39:16.962Z,32.00
2018-05-14T11:41:45.383Z,32.40
2018-05-14T11:44:13.719Z,32.30
2018-05-14T11:46:42.067Z,31.90
2018-05-14T11:49:10.974Z,32.10
2018-05-14T11:51:39.136Z,32.10
2018-05-14T11:54:07.669Z,32.10
2018-05-14T11:56:35.703Z,32.00
2018-05-14T11:59:03.796Z,32.30
2018-05-14T12:01:32.047Z,33.30
2018-05-14T12:04:00.610Z,33.00
2018-05-14T12:06:29.901Z,31.90
2018-05-14T12:08:58.946Z,32.30
2018-05-14T12:11:27.031Z,32.30
2018-05-14T12:13:55.586Z,32.70
2018-05-14T12:16:24.244Z,33.00
2018-05-14T12:18:52.640Z,32.60
2018-05-14T12:21:21.206Z,32.80
2018-05-14T12:23:49.458Z,32.90
2018-05-14T12:26:18.438Z,32.90
2018-05-14T12:28:48.283Z,32.90
2018-05-14T12:31:16.757Z,32.90
2018-05-14T12:33:46.053Z,34.00
2018-05-14T12:36:14.902Z,33.50
2018-05-14T12:38:42.994Z,33.40
2018-05-14T12:41:12.158Z,34.00
2018-05-14T12:43:40.482Z,33.90
2018-05-14T12:46:08.944Z,33.70
2018-05-14T12:48:37.114Z,33.90
2018-05-14T12:51:06.058Z,35.40
2018-05-14T12:53:34.087Z,35.40
2018-05-14T12:56:02.977Z,36.10
2018-05-14T12:58:32.551Z,34.80
2018-05-14T13:01:01.153Z,34.80
2018-05-14T13:03:29.338Z,35.10
2018-05-14T13:05:57.686Z,34.80
2018-05-14T13:08:26.248Z,35.30
2018-05-14T13:10:55.690Z,35.20
2018-05-14T13:13:24.665Z,35.30
2018-05-14T13:15:53.058Z,35.20
2018-05-14T13:18:21.337Z,35.40
2018-05-14T13:20:49.416Z,35.80
2018-05-14T13:23:18.089Z,35.50
2018-05-14T13:25:47.298Z,36.20
2018-05-14T13:28:15.404Z,36.10
2018-05-14T13:30:43.493Z,36.00
2018-05-14T13:33:11.632Z,36.40
2018-05-14T13:35:40.078Z,36.40
2018-05-14T13:38:09.394Z,38.20
2018-05-14T13:40:38.589Z,37.20
2018-05-14T13:43:06.643Z,37.10
2018-05-14T13:45:34.828Z,36.70
2018-05-14T13:48:03.140Z,36.90
2018-05-14T13:50:31.471Z,36.80
2018-05-14T13:52:59.853Z,36.30
2018-05-14T13:55:28.514Z,36.60
2018-05-14T13:57:56.767Z,36.50
2018-05-14T14:00:25.933Z,37.00
2018-05-14T14:02:53.925Z,37.00
2018-05-14T14:05:22.418Z,36.40
2018-05-14T14:07:51.180Z,36.50
2018-05-14T14:10:19.747Z,36.20
2018-05-14T14:12:48.254Z,35.80
2018-05-14T14:15:16.741Z,35.60
2018-05-14T14:17:45.355Z,35.10
2018-05-14T14:20:13.312Z,35.50
2018-05-14T14:22:41.623Z,35.80
2018-05-14T14:25:10.188Z,35.60
2018-05-14T14:27:38.528Z,35.50
2018-05-14T14:30:06.872Z,36.20
2018-05-14T14:32:35.102Z,35.70
2018-05-14T14:35:03.387Z,35.70
2018-05-14T14:37:32.429Z,36.60
2018-05-14T14:40:00.742Z,36.50
2018-05-14T14:42:28.979Z,37.00
2018-05-14T14:44:57.583Z,36.60
2018-05-14T14:47:25.988Z,37.00
2018-05-14T14:49:54.871Z,38.40
2018-05-14T14:52:23.669Z,37.70
2018-05-14T14:54:51.686Z,37.60
2018-05-14T14:57:19.960Z,36.80
2018-05-14T14:59:48.432Z,37.50
2018-05-14T15:02:16.843Z,38.00
2018-05-14T15:04:45.126Z,38.00
2018-05-14T15:07:14.251Z,37.50
2018-05-14T15:09:42.506Z,38.20
2018-05-14T15:12:10.785Z,37.00
2018-05-14T15:14:39.210Z,37.40
2018-05-14T15:17:07.391Z,36.90
2018-05-14T15:19:35.703Z,36.70
2018-05-14T15:22:05.116Z,36.80
2018-05-14T15:24:34.251Z,36.80
2018-05-14T15:27:02.659Z,36.80
2018-05-14T15:29:31.357Z,36.50
2018-05-14T15:31:59.526Z,36.40
2018-05-14T15:34:28.088Z,36.40
2018-05-14T15:36:56.384Z,36.70
2018-05-14T15:39:24.447Z,36.80
2018-05-14T15:41:52.735Z,37.00
2018-05-14T15:44:21.602Z,36.80
2018-05-14T15:46:49.905Z,36.70
2018-05-14T15:49:17.951Z,37.00
2018-05-14T15:51:46.215Z,36.50
2018-05-14T15:54:14.595Z,36.90
2018-05-14T15:56:43.177Z,36.70
2018-05-14T15:59:12.331Z,37.10
2018-05-14T16:01:40.918Z,37.10
2018-05-14T16:04:09.050Z,37.20
2018-05-14T16:06:37.897Z,36.90
2018-05-14T16:09:06.013Z,36.90
2018-05-14T16:11:34.802Z,36.90
2018-05-14T16:14:03.360Z,36.80
2018-05-14T16:16:31.551Z,37.00
2018-05-14T16:19:00.026Z,36.80
2018-05-14T16:21:28.609Z,36.70
2018-05-14T16:23:57.494Z,36.60
2018-05-14T16:26:25.759Z,36.60
2018-05-14T16:28:54.277Z,36.50
2018-05-14T16:31:22.824Z,36.50
2018-05-14T16:33:51.625Z,36.50
2018-05-14T16:36:20.505Z,36.30
2018-05-14T16:38:50.228Z,36.40
2018-05-14T16:41:18.354Z,36.40
2018-05-14T16:43:46.754Z,36.50
2018-05-14T16:46:15.042Z,36.50
2018-05-14T16:48:43.365Z,36.80
2018-05-14T16:51:11.788Z,36.50
2018-05-14T16:53:41.146Z,36.80
2018-05-14T16:56:10.559Z,36.70
2018-05-14T16:58:38.974Z,36.70
2018-05-14T17:01:07.246Z,36.90
2018-05-14T17:03:36.661Z,36.90
2018-05-14T17:06:04.713Z,37.10
2018-05-14T17:08:32.885Z,37.30
2018-05-14T17:11:00.977Z,37.30
2018-05-14T17:13:29.561Z,37.40
2018-05-14T17:15:57.987Z,37.50
2018-05-14T17:18:26.078Z,37.50
2018-05-14T17:20:54.572Z,37.40
2018-05-14T17:23:24.063Z,37.70
2018-05-14T17:25:52.055Z,37.70
2018-05-14T17:28:20.387Z,37.80
2018-05-14T17:30:48.473Z,37.80
2018-05-14T17:33:16.352Z,37.80
2018-05-14T17:35:44.461Z,37.90
2018-05-14T17:38:12.707Z,37.80
2018-05-14T17:40:41.828Z,37.90
2018-05-14T17:43:09.847Z,38.00
2018-05-14T17:45:38.136Z,38.00
2018-05-14T17:48:06.352Z,38.00
2018-05-14T17:50:34.692Z,38.20
2018-05-14T17:53:04.030Z,38.20
2018-05-14T17:55:32.481Z,38.30
2018-05-14T17:58:00.734Z,38.20
2018-05-14T18:00:29.608Z,38.30
2018-05-14T18:02:58.304Z,38.20
2018-05-14T18:05:26.794Z,38.20
2018-05-14T18:07:55.756Z,38.20
2018-05-14T18:10:23.952Z,38.20
2018-05-14T18:12:54.033Z,38.20
2018-05-14T18:15:22.517Z,38.20
2018-05-14T18:17:51.000Z,38.30
2018-05-14T18:20:19.090Z,38.50
2018-05-14T18:22:47.568Z,38.60
2018-05-14T18:25:15.990Z,38.70
2018-05-14T18:27:44.507Z,38.50
2018-05-14T18:30:13.010Z,38.50
2018-05-14T18:32:42.145Z,38.70
2018-05-14T18:35:10.267Z,38.50
2018-05-14T18:37:38.526Z,38.60
2018-05-14T18:40:06.680Z,38.70
2018-05-14T18:42:35.476Z,38.50
2018-05-14T18:45:03.896Z,38.50
2018-05-14T18:47:32.983Z,38.40
2018-05-14T18:50:01.238Z,38.40
2018-05-14T18:52:29.410Z,38.40
2018-05-14T18:54:57.845Z,38.60
2018-05-14T18:57:26.703Z,38.50
2018-05-14T18:59:54.800Z,38.60
2018-05-14T19:02:23.244Z,38.60
2018-05-14T19:04:51.831Z,38.70
2018-05-14T19:07:19.810Z,38.70
2018-05-14T19:09:48.694Z,38.60
2018-05-14T19:12:18.251Z,38.80
2018-05-14T19:14:46.482Z,38.80
2018-05-14T19:17:14.982Z,38.70
2018-05-14T19:19:43.638Z,38.80
2018-05-14T19:22:12.713Z,38.80
2018-05-14T19:24:40.771Z,38.70
2018-05-14T19:27:09.283Z,38.90
2018-05-14T19:29:37.476Z,38.90
2018-05-14T19:32:06.223Z,38.80
2018-05-14T19:34:34.072Z,38.90
2018-05-14T19:37:02.165Z,38.80
2018-05-14T19:39:31.202Z,38.60
2018-05-14T19:41:59.196Z,38.90
2018-05-14T19:44:27.175Z,38.90
2018-05-14T19:46:55.269Z,38.90
2018-05-14T19:49:24.196Z,38.90
2018-05-14T19:51:52.550Z,38.80
2018-05-14T19:54:21.329Z,39.00
2018-05-14T19:56:49.626Z,39.00
2018-05-14T19:59:18.185Z,39.00
2018-05-14T20:01:46.517Z,39.00
2018-05-14T20:04:14.832Z,39.00
2018-05-14T20:06:44.130Z,39.00
2018-05-14T20:09:12.310Z,38.90
2018-05-14T20:11:40.445Z,39.00
2018-05-14T20:14:09.100Z,39.10
2018-05-14T20:16:37.640Z,38.90
2018-05-14T20:19:06.836Z,39.00
2018-05-14T20:21:36.032Z,39.00
2018-05-14T20:24:04.925Z,39.10
2018-05-14T20:26:33.520Z,39.00
2018-05-14T20:29:01.658Z,39.10
2018-05-14T20:31:30.083Z,39.10
2018-05-14T20:33:59.031Z,39.10
2018-05-14T20:36:28.130Z,39.10
2018-05-14T20:38:57.393Z,39.10
2018-05-14T20:41:26.131Z,39.00
2018-05-14T20:43:54.290Z,39.10
2018-05-14T20:46:23.063Z,39.10
2018-05-14T20:48:52.069Z,39.00
2018-05-14T20:51:20.237Z,39.00
2018-05-14T20:53:49.532Z,39.10
2018-05-14T20:56:18.369Z,39.20
2018-05-14T20:58:46.856Z,39.10
2018-05-14T21:01:15.283Z,39.10
2018-05-14T21:03:44.102Z,39.10
2018-05-14T21:06:13.466Z,39.20
2018-05-14T21:08:42.666Z,39.10
2018-05-14T21:11:10.696Z,39.10
2018-05-14T21:13:38.947Z,39.20
2018-05-14T21:16:07.281Z,39.20
2018-05-14T21:18:36.125Z,39.60
2018-05-14T21:21:04.142Z,39.20
2018-05-14T21:23:32.519Z,39.20
2018-05-14T21:26:01.284Z,39.20
2018-05-14T21:28:31.316Z,39.20
2018-05-14T21:31:00.592Z,39.30
2018-05-14T21:33:28.807Z,39.30
2018-05-14T21:35:56.881Z,39.30
2018-05-14T21:38:25.528Z,39.30
2018-05-14T21:40:53.492Z,39.30
2018-05-14T21:43:21.779Z,39.30
2018-05-14T21:45:50.943Z,39.60
2018-05-14T21:48:19.567Z,39.30
2018-05-14T21:50:47.813Z,39.30
2018-05-14T21:53:16.034Z,39.30
2018-05-14T21:55:44.083Z,39.50
2018-05-14T21:58:12.235Z,39.40
2018-05-14T22:00:40.524Z,39.50
2018-05-14T22:03:09.380Z,39.50
2018-05-14T22:05:37.679Z,39.40
2018-05-14T22:08:06.743Z,39.50
2018-05-14T22:10:35.245Z,39.50
2018-05-14T22:13:04.139Z,39.50
2018-05-14T22:15:32.173Z,39.50
2018-05-14T22:18:00.388Z,39.70
2018-05-14T22:20:29.793Z,39.60
2018-05-14T22:22:58.675Z,39.70
2018-05-14T22:25:27.522Z,39.50
2018-05-14T22:27:56.112Z,40.20
2018-05-14T22:30:24.458Z,39.50
2018-05-14T22:32:53.001Z,39.50
2018-05-14T22:35:21.877Z,39.80
2018-05-14T22:37:50.171Z,39.60
2018-05-14T22:40:19.407Z,40.30
2018-05-14T22:42:47.617Z,39.60
2018-05-14T22:45:15.918Z,39.60
2018-05-14T22:47:44.309Z,39.50
2018-05-14T22:50:12.496Z,39.70
2018-05-14T22:52:40.913Z,39.60
2018-05-14T22:55:09.106Z,39.60
2018-05-14T22:57:37.329Z,40.20
2018-05-14T23:00:05.671Z,39.70
2018-05-14T23:02:34.538Z,39.80
2018-05-14T23:05:03.435Z,39.60
2018-05-14T23:07:31.905Z,39.60
2018-05-14T23:10:00.192Z,39.70
2018-05-14T23:12:28.476Z,39.80
2018-05-14T23:14:58.416Z,39.80
2018-05-14T23:17:26.869Z,39.70
2018-05-14T23:19:56.112Z,39.70
2018-05-14T23:22:24.211Z,39.60
2018-05-14T23:24:52.319Z,39.70
2018-05-14T23:27:20.369Z,39.80
2018-05-14T23:29:49.645Z,39.80
2018-05-14T23:32:17.903Z,39.70
2018-05-14T23:34:46.202Z,39.80
2018-05-14T23:37:14.682Z,39.80
2018-05-14T23:39:43.406Z,39.50
2018-05-14T23:42:11.450Z,39.80
2018-05-14T23:44:39.507Z,39.70
2018-05-14T23:47:07.946Z,39.80
2018-05-14T23:49:36.068Z,39.80
2018-05-14T23:52:05.570Z,39.80
2018-05-14T23:54:34.516Z,39.90
2018-05-14T23:57:02.999Z,39.80
2018-05-14T23:59:31.481Z,39.80
